createdAt,value
2019-06-08T00:01:10.466Z,19.30
2019-06-08T00:04:18.612Z,19.20
2019-06-08T00:07:26.353Z,19.10
2019-06-08T00:10:34.005Z,19.00
2019-06-08T00:13:41.915Z,18.90
2019-06-08T00:16:49.531Z,18.90
2019-06-08T00:19:57.018Z,18.80
2019-06-08T00:23:04.759Z,18.80
2019-06-08T00:26:13.892Z,18.80
2019-06-08T00:29:22.409Z,18.70
2019-06-08T00:32:29.968Z,18.70
2019-06-08T00:35:37.418Z,18.60
2019-06-08T00:38:45.119Z,18.50
2019-06-08T00:41:52.724Z,18.30
2019-06-08T00:45:00.322Z,18.20
2019-06-08T00:48:07.719Z,18.20
2019-06-08T00:51:15.204Z,18.10
2019-06-08T00:54:23.507Z,18.00
2019-06-08T00:57:31.008Z,17.90
2019-06-08T01:00:38.917Z,17.90
2019-06-08T01:03:46.378Z,17.90
2019-06-08T01:06:55.070Z,18.00
2019-06-08T01:10:02.673Z,18.00
2019-06-08T01:13:10.311Z,18.00
2019-06-08T01:16:18.793Z,18.00
2019-06-08T01:19:27.436Z,18.00
2019-06-08T01:22:34.946Z,17.90
2019-06-08T01:25:42.766Z,17.80
2019-06-08T01:28:50.174Z,17.80
2019-06-08T01:31:57.740Z,17.70
2019-06-08T01:35:05.851Z,17.70
2019-06-08T01:38:13.396Z,17.70
2019-06-08T01:41:21.346Z,17.70
2019-06-08T01:44:30.090Z,17.60
2019-06-08T01:47:37.780Z,17.60
2019-06-08T01:50:45.708Z,17.50
2019-06-08T01:53:53.182Z,17.40
2019-06-08T01:57:00.850Z,17.40
2019-06-08T02:00:29.332Z,17.40
2019-06-08T02:03:18.163Z,17.40
2019-06-08T02:06:26.249Z,17.50
2019-06-08T02:09:35.696Z,17.50
2019-06-08T02:12:43.316Z,17.50
2019-06-08T02:15:51.180Z,17.40
2019-06-08T02:18:58.709Z,17.40
2019-06-08T02:22:06.383Z,17.30
2019-06-08T02:25:16.547Z,17.30
2019-06-08T02:28:24.020Z,17.30
2019-06-08T02:31:32.772Z,17.30
2019-06-08T02:34:41.073Z,17.20
2019-06-08T02:37:48.699Z,17.20
2019-06-08T02:40:56.350Z,17.20
2019-06-08T02:44:04.075Z,17.20
2019-06-08T02:47:15.455Z,17.20
2019-06-08T02:50:48.005Z,17.20
2019-06-08T02:53:55.633Z,17.20
2019-06-08T02:57:05.289Z,17.30
2019-06-08T03:00:13.414Z,17.30
2019-06-08T03:03:21.033Z,17.30
2019-06-08T03:06:32.273Z,17.30
2019-06-08T03:09:41.220Z,17.30
2019-06-08T03:12:51.603Z,17.40
2019-06-08T03:15:59.302Z,17.50
2019-06-08T03:19:20.639Z,17.50
2019-06-08T03:22:16.075Z,17.50
2019-06-08T03:25:23.585Z,17.60
2019-06-08T03:28:32.504Z,17.60
2019-06-08T03:31:49.686Z,17.70
2019-06-08T03:34:55.694Z,17.70
2019-06-08T03:37:58.525Z,17.80
2019-06-08T03:41:05.995Z,17.90
2019-06-08T03:44:13.458Z,18.00
2019-06-08T03:47:21.003Z,18.20
2019-06-08T03:50:28.488Z,18.30
2019-06-08T03:53:37.733Z,18.60
2019-06-08T03:56:46.172Z,18.90
2019-06-08T03:59:53.785Z,19.30
2019-06-08T04:03:01.477Z,19.30
2019-06-08T04:06:08.943Z,19.50
2019-06-08T04:09:16.399Z,19.70
2019-06-08T04:12:23.788Z,20.00
2019-06-08T04:15:31.449Z,20.40
2019-06-08T04:18:40.286Z,20.60
2019-06-08T04:21:48.038Z,20.80
2019-06-08T04:24:55.520Z,21.00
2019-06-08T04:28:02.919Z,21.40
2019-06-08T04:31:10.389Z,22.30
2019-06-08T04:34:17.839Z,22.20
2019-06-08T04:37:25.313Z,22.80
2019-06-08T04:40:32.772Z,23.10
2019-06-08T04:43:42.780Z,23.20
2019-06-08T04:46:50.846Z,23.00
2019-06-08T04:49:58.363Z,23.20
2019-06-08T04:53:05.835Z,22.80
2019-06-08T04:56:13.297Z,23.20
2019-06-08T04:59:20.813Z,23.70
2019-06-08T05:02:28.333Z,23.90
2019-06-08T05:05:35.819Z,24.80
2019-06-08T05:08:43.251Z,25.80
2019-06-08T05:11:50.659Z,25.20
2019-06-08T05:14:58.121Z,24.40
2019-06-08T05:18:05.795Z,23.90
2019-06-08T05:21:13.223Z,24.50
2019-06-08T05:24:21.331Z,25.40
2019-06-08T05:27:28.803Z,26.30
2019-06-08T05:30:36.302Z,27.30
2019-06-08T05:33:43.771Z,26.80
2019-06-08T05:36:51.254Z,26.50
2019-06-08T05:39:58.712Z,27.40
2019-06-08T05:43:06.280Z,28.00
2019-06-08T05:46:13.757Z,28.20
2019-06-08T05:49:21.334Z,27.80
2019-06-08T05:52:28.825Z,28.00
2019-06-08T05:55:36.247Z,28.20
2019-06-08T05:58:43.940Z,28.30
2019-06-08T06:01:51.569Z,28.70
2019-06-08T06:04:59.101Z,29.40
2019-06-08T06:08:17.963Z,29.70
2019-06-08T06:11:15.791Z,29.10
2019-06-08T06:14:24.522Z,29.40
2019-06-08T06:17:31.982Z,29.10
2019-06-08T06:20:41.008Z,29.80
2019-06-08T06:23:49.308Z,30.90
2019-06-08T06:26:57.147Z,30.80
2019-06-08T06:30:04.900Z,31.00
2019-06-08T06:33:12.337Z,30.80
2019-06-08T06:36:21.031Z,31.70
2019-06-08T06:39:28.540Z,32.20
2019-06-08T06:42:36.103Z,32.20
2019-06-08T06:45:43.981Z,32.70
2019-06-08T06:48:52.509Z,32.20
2019-06-08T06:52:00.324Z,32.10
2019-06-08T06:55:08.917Z,32.50
2019-06-08T06:58:16.413Z,32.20
2019-06-08T07:01:24.174Z,32.20
2019-06-08T07:04:31.760Z,32.60
2019-06-08T07:07:39.296Z,33.10
2019-06-08T07:10:49.382Z,33.40
2019-06-08T07:13:57.057Z,33.70
2019-06-08T07:17:04.602Z,34.30
2019-06-08T07:20:12.281Z,34.70
2019-06-08T07:23:19.946Z,34.30
2019-06-08T07:26:27.514Z,34.00
2019-06-08T07:29:35.108Z,34.10
2019-06-08T07:32:42.702Z,33.40
2019-06-08T07:35:51.567Z,32.70
2019-06-08T07:38:59.649Z,32.20
2019-06-08T07:42:07.290Z,32.00
2019-06-08T07:45:14.936Z,32.30
2019-06-08T07:48:24.128Z,32.60
2019-06-08T07:51:31.833Z,32.60
2019-06-08T07:54:39.290Z,32.50
2019-06-08T07:57:48.501Z,32.70
2019-06-08T08:01:03.653Z,32.40
2019-06-08T08:04:04.896Z,31.80
2019-06-08T08:07:12.562Z,31.10
2019-06-08T08:10:20.145Z,30.40
2019-06-08T08:13:27.611Z,29.90
2019-06-08T08:16:35.088Z,29.40
2019-06-08T08:19:42.646Z,28.90
2019-06-08T08:22:54.402Z,29.20
2019-06-08T08:26:01.751Z,29.60
2019-06-08T08:29:08.566Z,29.40
2019-06-08T08:32:18.606Z,29.20
2019-06-08T08:35:25.217Z,29.30
2019-06-08T08:38:32.637Z,30.00
2019-06-08T08:41:40.083Z,30.50
2019-06-08T08:44:48.633Z,30.70
2019-06-08T08:48:14.432Z,30.50
2019-06-08T08:51:08.605Z,31.10
2019-06-08T08:54:18.138Z,31.70
2019-06-08T08:57:25.710Z,32.40
2019-06-08T09:00:33.379Z,32.00
2019-06-08T09:03:40.893Z,32.00
2019-06-08T09:06:48.434Z,32.20
2019-06-08T09:09:59.422Z,32.30
2019-06-08T09:13:05.166Z,32.50
2019-06-08T09:16:12.623Z,32.90
2019-06-08T09:19:21.043Z,32.90
2019-06-08T09:22:31.150Z,33.40
2019-06-08T09:25:40.393Z,33.00
2019-06-08T09:28:46.789Z,33.40
2019-06-08T09:31:54.287Z,33.40
2019-06-08T09:35:04.652Z,32.60
2019-06-08T09:38:11.099Z,32.60
2019-06-08T09:41:18.798Z,32.20
2019-06-08T09:44:28.112Z,31.10
2019-06-08T09:47:37.948Z,30.50
2019-06-08T09:50:44.471Z,29.80
2019-06-08T09:53:54.248Z,29.20
2019-06-08T09:57:03.962Z,29.10
2019-06-08T10:00:18.008Z,29.70
2019-06-08T10:03:20.835Z,30.60
2019-06-08T10:06:28.457Z,30.80
2019-06-08T10:09:37.989Z,30.60
2019-06-08T10:12:44.921Z,29.70
2019-06-08T10:15:52.387Z,29.80
2019-06-08T10:19:03.578Z,29.90
2019-06-08T10:22:09.029Z,29.50
2019-06-08T10:25:16.697Z,29.50
2019-06-08T10:28:24.162Z,29.50
2019-06-08T10:31:38.890Z,30.10
2019-06-08T10:34:40.855Z,30.00
2019-06-08T10:37:51.210Z,30.20
2019-06-08T10:41:10.411Z,30.80
2019-06-08T10:44:14.431Z,30.80
2019-06-08T10:47:22.141Z,30.30
2019-06-08T10:50:29.686Z,30.60
2019-06-08T10:53:46.399Z,30.90
2019-06-08T10:56:48.421Z,31.00
2019-06-08T10:59:57.573Z,31.00
2019-06-08T11:03:06.697Z,30.60
2019-06-08T11:06:13.731Z,30.30
2019-06-08T11:09:21.554Z,29.90
2019-06-08T11:12:29.219Z,30.50
2019-06-08T11:15:37.823Z,30.60
2019-06-08T11:18:45.623Z,30.70
2019-06-08T11:21:53.071Z,30.70
2019-06-08T11:25:01.965Z,30.90
2019-06-08T11:28:14.905Z,30.90
2019-06-08T11:31:19.828Z,30.90
2019-06-08T11:34:28.809Z,30.70
2019-06-08T11:37:38.763Z,31.10
2019-06-08T11:40:47.819Z,30.90
2019-06-08T11:43:59.554Z,30.60
2019-06-08T11:47:04.651Z,30.80
2019-06-08T11:50:13.476Z,30.80
2019-06-08T11:53:21.055Z,30.50
2019-06-08T11:56:29.117Z,30.10
2019-06-08T11:59:37.491Z,30.20
2019-06-08T12:02:45.157Z,30.10
2019-06-08T12:05:52.667Z,30.10
2019-06-08T12:09:00.305Z,30.20
2019-06-08T12:12:17.153Z,29.90
2019-06-08T12:15:21.201Z,30.20
2019-06-08T12:18:28.708Z,29.60
2019-06-08T12:21:36.246Z,29.30
2019-06-08T12:24:43.698Z,29.10
2019-06-08T12:27:52.776Z,29.10
2019-06-08T12:31:01.149Z,28.90
2019-06-08T12:34:09.237Z,28.70
2019-06-08T12:37:21.790Z,27.90
2019-06-08T12:40:28.097Z,27.60
2019-06-08T12:43:34.936Z,27.00
2019-06-08T12:46:42.476Z,27.00
2019-06-08T12:49:49.924Z,26.70
2019-06-08T12:52:58.393Z,26.60
2019-06-08T12:56:05.992Z,26.30
2019-06-08T12:59:17.017Z,26.00
2019-06-08T13:02:24.252Z,26.00
2019-06-08T13:05:33.029Z,26.00
2019-06-08T13:08:40.488Z,25.80
2019-06-08T13:11:50.516Z,25.90
2019-06-08T13:14:58.176Z,25.40
2019-06-08T13:18:05.859Z,25.30
2019-06-08T13:21:25.411Z,25.10
2019-06-08T13:24:22.583Z,24.80
2019-06-08T13:27:30.122Z,24.80
2019-06-08T13:30:38.984Z,24.80
2019-06-08T13:33:48.571Z,24.70
2019-06-08T13:36:55.805Z,24.50
2019-06-08T13:40:03.360Z,24.50
2019-06-08T13:43:11.227Z,24.20
2019-06-08T13:46:20.763Z,23.90
2019-06-08T13:49:30.825Z,23.70
2019-06-08T13:52:38.290Z,23.50
2019-06-08T13:55:53.201Z,23.30
2019-06-08T13:58:54.995Z,23.10
2019-06-08T14:02:02.821Z,22.90
2019-06-08T14:05:10.529Z,22.90
2019-06-08T14:08:20.690Z,23.00
2019-06-08T14:11:28.072Z,22.90
2019-06-08T14:14:39.680Z,23.00
2019-06-08T14:17:47.383Z,23.10
2019-06-08T14:20:54.778Z,23.20
2019-06-08T14:24:03.619Z,23.20
2019-06-08T14:27:11.050Z,23.20
2019-06-08T14:30:20.794Z,23.10
2019-06-08T14:33:33.054Z,23.10
2019-06-08T14:36:40.580Z,23.00
2019-06-08T14:39:45.911Z,22.70
2019-06-08T14:42:53.382Z,22.70
2019-06-08T14:46:00.839Z,22.40
2019-06-08T14:49:09.884Z,22.30
2019-06-08T14:52:19.343Z,22.20
2019-06-08T14:55:31.646Z,22.20
2019-06-08T14:58:35.584Z,22.00
2019-06-08T15:01:43.045Z,22.00
2019-06-08T15:04:50.615Z,21.90
2019-06-08T15:08:00.744Z,21.90
2019-06-08T15:11:08.119Z,22.00
2019-06-08T15:14:15.838Z,22.10
2019-06-08T15:17:23.768Z,22.10
2019-06-08T15:20:31.329Z,22.20
2019-06-08T15:23:38.762Z,22.40
2019-06-08T15:26:48.666Z,22.50
2019-06-08T15:29:55.823Z,22.70
2019-06-08T15:33:03.214Z,22.60
2019-06-08T15:36:10.650Z,22.30
2019-06-08T15:39:18.170Z,22.20
2019-06-08T15:42:28.690Z,22.00
2019-06-08T15:45:34.871Z,21.80
2019-06-08T15:48:42.293Z,21.70
2019-06-08T15:51:49.697Z,21.60
2019-06-08T15:54:59.017Z,21.30
2019-06-08T15:58:08.705Z,20.90
2019-06-08T16:01:15.488Z,20.90
2019-06-08T16:04:23.422Z,20.80
2019-06-08T16:07:32.754Z,20.90
2019-06-08T16:10:40.993Z,20.90
2019-06-08T16:13:48.440Z,20.90
2019-06-08T16:16:56.079Z,20.90
2019-06-08T16:20:03.515Z,21.00
2019-06-08T16:23:11.107Z,20.90
2019-06-08T16:26:19.002Z,20.90
2019-06-08T16:29:26.909Z,20.80
2019-06-08T16:32:35.395Z,20.80
2019-06-08T16:35:42.981Z,20.70
2019-06-08T16:38:52.834Z,20.60
2019-06-08T16:41:59.869Z,20.50
2019-06-08T16:45:07.861Z,20.50
2019-06-08T16:48:15.314Z,20.50
2019-06-08T16:51:22.974Z,20.40
2019-06-08T16:54:30.647Z,20.40
2019-06-08T16:57:40.784Z,20.40
2019-06-08T17:00:47.431Z,20.30
2019-06-08T17:03:54.973Z,20.30
2019-06-08T17:07:03.277Z,20.30
2019-06-08T17:10:10.937Z,20.30
2019-06-08T17:13:18.381Z,20.20
2019-06-08T17:16:26.011Z,20.20
2019-06-08T17:19:34.097Z,20.30
2019-06-08T17:22:41.708Z,20.20
2019-06-08T17:25:49.161Z,20.20
2019-06-08T17:28:56.645Z,20.00
2019-06-08T17:32:04.113Z,20.00
2019-06-08T17:35:12.241Z,19.90
2019-06-08T17:38:19.815Z,19.70
2019-06-08T17:41:27.393Z,19.70
2019-06-08T17:44:36.389Z,19.70
2019-06-08T17:47:44.364Z,19.70
2019-06-08T17:50:51.918Z,19.60
2019-06-08T17:53:59.440Z,19.60
2019-06-08T17:57:06.889Z,19.50
2019-06-08T18:00:14.906Z,19.40
2019-06-08T18:03:22.449Z,19.40
2019-06-08T18:06:29.903Z,19.30
2019-06-08T18:09:39.258Z,19.20
2019-06-08T18:12:49.032Z,19.10
2019-06-08T18:15:57.586Z,19.00
2019-06-08T18:19:04.985Z,18.90
2019-06-08T18:22:15.316Z,18.90
2019-06-08T18:25:21.527Z,18.80
2019-06-08T18:28:28.973Z,18.70
2019-06-08T18:31:39.654Z,18.70
2019-06-08T18:34:47.926Z,18.60
2019-06-08T18:37:54.715Z,18.60
2019-06-08T18:41:02.160Z,18.60
2019-06-08T18:44:09.610Z,18.50
2019-06-08T18:47:20.089Z,18.50
2019-06-08T18:50:28.469Z,18.40
2019-06-08T18:53:54.366Z,18.40
2019-06-08T18:56:48.416Z,18.30
2019-06-08T18:59:54.398Z,18.30
2019-06-08T19:03:01.899Z,18.30
2019-06-08T19:06:10.429Z,18.10
2019-06-08T19:09:18.220Z,18.10
2019-06-08T19:12:27.665Z,18.00
2019-06-08T19:15:40.685Z,17.90
2019-06-08T19:18:48.944Z,17.80
2019-06-08T19:21:54.501Z,17.70
2019-06-08T19:25:02.055Z,17.60
2019-06-08T19:28:09.739Z,17.50
2019-06-08T19:31:17.646Z,17.50
2019-06-08T19:34:27.926Z,17.50
2019-06-08T19:37:34.323Z,17.50
2019-06-08T19:40:42.664Z,17.50
2019-06-08T19:43:54.551Z,17.40
2019-06-08T19:46:59.612Z,17.50
2019-06-08T19:50:07.958Z,17.50
2019-06-08T19:53:18.376Z,17.50
2019-06-08T19:56:27.972Z,17.60
2019-06-08T19:59:35.334Z,17.60
2019-06-08T20:02:44.638Z,17.60
2019-06-08T20:05:53.608Z,17.60
2019-06-08T20:09:01.853Z,17.70
2019-06-08T20:12:10.945Z,17.70
2019-06-08T20:15:18.533Z,17.70
2019-06-08T20:18:27.981Z,17.70
2019-06-08T20:21:35.493Z,17.70
2019-06-08T20:24:44.057Z,17.70
2019-06-08T20:27:51.755Z,17.70
2019-06-08T20:30:59.939Z,17.70
2019-06-08T20:34:07.390Z,17.70
2019-06-08T20:37:14.835Z,17.70
2019-06-08T20:40:22.346Z,17.70
2019-06-08T20:43:29.852Z,17.70
2019-06-08T20:46:37.754Z,17.70
2019-06-08T20:49:48.630Z,17.70
2019-06-08T20:52:54.566Z,17.70
2019-06-08T20:56:02.047Z,17.70
2019-06-08T20:59:09.534Z,17.60
2019-06-08T21:02:17.841Z,17.60
2019-06-08T21:05:27.603Z,17.60
2019-06-08T21:08:34.377Z,17.60
2019-06-08T21:11:41.925Z,17.60
2019-06-08T21:14:52.284Z,17.60
2019-06-08T21:17:59.995Z,17.60
2019-06-08T21:21:08.119Z,17.60
2019-06-08T21:24:17.317Z,17.60
2019-06-08T21:27:24.928Z,17.50
2019-06-08T21:30:32.456Z,17.50
2019-06-08T21:33:39.915Z,17.50
2019-06-08T21:36:49.811Z,17.50
2019-06-08T21:40:03.171Z,17.50
2019-06-08T21:43:07.926Z,17.40
2019-06-08T21:46:14.636Z,17.40
2019-06-08T21:49:22.159Z,17.40
2019-06-08T21:52:29.589Z,17.40
2019-06-08T21:55:38.290Z,17.40
2019-06-08T21:58:47.283Z,17.40
2019-06-08T22:01:59.005Z,17.40
2019-06-08T22:05:04.872Z,17.40
2019-06-08T22:08:12.618Z,17.30
2019-06-08T22:11:20.135Z,17.30
2019-06-08T22:14:27.575Z,17.20
2019-06-08T22:17:38.087Z,17.10
2019-06-08T22:20:47.645Z,17.00
2019-06-08T22:23:55.858Z,16.90
2019-06-08T22:27:03.672Z,16.80
2019-06-08T22:30:22.920Z,16.70
2019-06-08T22:33:22.260Z,16.60
2019-06-08T22:36:29.949Z,16.50
2019-06-08T22:39:38.057Z,16.40
2019-06-08T22:42:48.104Z,16.40
2019-06-08T22:45:57.561Z,16.30
2019-06-08T22:49:04.621Z,16.20
2019-06-08T22:52:12.307Z,16.00
2019-06-08T22:55:19.853Z,15.90
2019-06-08T22:58:27.688Z,15.70
2019-06-08T23:01:35.197Z,15.70
2019-06-08T23:04:42.763Z,15.60
2019-06-08T23:07:52.358Z,15.60
2019-06-08T23:11:02.005Z,15.60
2019-06-08T23:14:12.883Z,15.50
2019-06-08T23:17:18.187Z,15.50
2019-06-08T23:20:27.578Z,15.40
2019-06-08T23:23:34.769Z,15.30
2019-06-08T23:26:42.233Z,15.30
2019-06-08T23:29:49.829Z,15.20
2019-06-08T23:33:01.459Z,15.20
2019-06-08T23:39:22.249Z,15.10
2019-06-08T23:42:29.682Z,15.10
2019-06-08T23:45:38.009Z,15.00
2019-06-08T23:48:48.152Z,14.90
2019-06-08T23:51:54.853Z,14.80
2019-06-08T23:55:04.263Z,14.80
2019-06-08T23:58:13.525Z,14.70
